Latest Weather Observations for Mount Read

IDT60801

Issued at 8:35 pm EST Tuesday 29 July 2014 (issued every 30 minutes, with the page automatically refreshed every 10 minutes)

About weather observations | Map of weather stations | Latest weather observations for TAS | Other Formats
Station Details ID: 097085 Name: MOUNT READ Lat: -41.84 Lon: 145.54 Height: 1119.5 m
Data from the previous 72 hours. | See also: Recent months at Mount Read
Date/Time
EST
Temp
°C
App
Temp
°C
Dew
Point
Rel
Hum
%
Delta-T
°C
Wind Press
QNH
hPa
Press
MSL
hPa
Rain
since 9 am
mm
Dir
 
Spd
km/h
Gust
km/h
Spd
kts
Gust
kts
29/08:30pm 2.6 -11.0 2.5 99 0.0 WNW 63 102 34 55 991.2 - 42.0
29/08:00pm 3.0 -11.6 2.9 99 0.0 WNW 69 106 37 57 991.6 993.2 42.0
29/07:30pm 2.8 -10.3 2.7 99 0.0 WNW 61 115 33 62 992.1 - 41.8
29/07:25pm 2.5 -12.2 2.4 99 0.0 WNW 69 115 37 62 990.7 - 41.8
29/07:00pm 3.3 -9.8 3.2 99 0.0 WNW 61 89 33 48 991.7 993.4 41.8
29/06:35pm 3.0 -10.9 2.9 99 0.0 WNW 65 115 35 62 990.8 - 41.8
29/06:30pm 2.9 -10.2 2.8 99 0.0 WNW 61 93 33 50 990.6 - 41.8
29/06:11pm 2.3 -13.8 2.2 99 0.0 WNW 76 117 41 63 990.0 - 41.8
29/06:04pm 1.6 -13.3 1.5 99 0.0 WNW 69 98 37 53 990.2 - 41.8
29/06:00pm 1.4 -18.6 1.3 99 0.0 W 96 132 52 71 989.7 991.3 41.8
29/05:56pm 1.4 -20.5 1.3 99 0.0 W 106 132 57 71 988.5 - 41.8
29/05:46pm 3.7 -13.5 3.6 99 0.0 WNW 83 132 45 71 989.8 - 41.4
29/05:30pm 3.8 -13.7 3.7 99 0.0 WNW 85 146 46 79 987.8 - 40.0
29/05:10pm 4.4 -14.9 4.3 99 0.0 WNW 95 148 51 80 988.2 - 39.8
29/05:08pm 4.4 -10.0 4.3 99 0.0 WNW 69 130 37 70 988.6 - 39.8
29/05:04pm 4.8 -7.6 4.7 99 0.0 WNW 59 107 32 58 988.8 - 38.6
29/05:00pm 4.6 -15.2 4.5 99 0.0 WNW 98 128 53 69 986.8 988.3 36.2
29/04:56pm 4.7 -14.6 4.6 99 0.0 WNW 95 124 51 67 987.0 - 35.8
29/04:47pm 4.9 -8.6 4.8 99 0.0 WNW 65 107 35 58 988.5 - 35.4
29/04:46pm 5.0 -7.7 4.9 99 0.0 WNW 61 82 33 44 988.9 - 35.4
29/04:44pm 5.0 -12.3 4.9 99 0.0 WNW 85 115 46 62 988.6 - 35.2
29/04:30pm 4.9 -7.9 4.8 99 0.0 WNW 61 113 33 61 988.5 - 31.6
29/04:23pm 5.0 -8.5 4.9 99 0.0 WNW 65 113 35 61 988.8 - 30.8
29/04:20pm 4.9 -3.7 4.8 99 0.0 NW 39 70 21 38 988.8 - 30.8
29/04:09pm 5.1 -7.6 5.0 99 0.0 NW 61 113 33 61 988.0 - 30.2
29/04:05pm 5.1 -6.9 5.0 99 0.0 NW 57 95 31 51 988.0 - 30.0
29/04:00pm 5.1 -3.1 5.0 99 0.0 NNW 37 82 20 44 988.8 990.4 28.6
29/03:59pm 5.1 -2.7 5.0 99 0.0 N 35 67 19 36 988.5 - 28.6
29/03:56pm 5.1 -7.2 5.0 99 0.0 WNW 59 109 32 59 988.2 - 28.4
29/03:39pm 5.2 -5.8 5.1 99 0.0 NNW 52 117 28 63 988.2 - 27.2
29/03:36pm 5.2 -5.0 5.1 99 0.0 NNW 48 93 26 50 988.6 - 27.0
29/03:30pm 5.2 -10.0 5.1 99 0.0 WNW 74 124 40 67 988.7 - 25.8
29/03:17pm 5.2 -8.6 5.1 99 0.0 NW 67 120 36 65 988.7 - 25.4
29/03:10pm 5.1 -10.5 5.0 99 0.0 WNW 76 102 41 55 988.5 - 24.8
29/03:08pm 5.1 -5.5 5.0 99 0.0 WNW 50 78 27 42 989.5 - 24.6
29/03:05pm 5.2 -9.6 5.1 99 0.0 WNW 72 102 39 55 989.1 - 24.4
29/03:00pm 5.2 -4.3 5.1 99 0.0 NNW 44 87 24 47 988.9 990.5 23.2
29/02:42pm 5.0 -4.3 4.9 99 0.0 NW 43 87 23 47 988.7 - 21.0
29/02:38pm 4.9 -3.3 4.8 99 0.0 NW 37 61 20 33 989.0 - 21.0
29/02:35pm 4.9 -9.4 4.8 99 0.0 NW 69 100 37 54 988.9 - 21.0
29/02:34pm 4.9 -4.1 4.8 99 0.0 NNW 41 100 22 54 988.9 - 21.0
29/02:30pm 4.8 -3.8 4.7 99 0.0 NNW 39 76 21 41 988.7 - 20.6
29/02:00pm 4.3 -5.7 4.2 99 0.0 NNW 46 106 25 57 989.8 991.4 16.6
29/01:30pm 3.9 -6.6 3.8 99 0.0 NNW 48 95 26 51 990.1 - 13.0
29/01:22pm 3.8 -6.3 3.7 99 0.0 NW 46 95 25 51 989.9 - 12.0
29/01:19pm 3.7 -4.0 3.6 99 0.0 NNW 33 70 18 38 990.3 - 11.8
29/01:16pm 3.6 -9.0 3.5 99 0.0 NW 59 109 32 59 990.1 - 11.8
29/01:00pm 3.5 -5.3 3.4 99 0.0 NW 39 85 21 46 991.0 992.7 11.6
29/12:30pm 3.2 -6.5 3.1 99 0.0 NW 43 83 23 45 992.0 - 11.6
29/12:28pm 3.2 -8.9 3.1 99 0.0 WNW 56 83 30 45 991.4 - 11.6
29/12:12pm 3.1 -4.7 3.0 99 0.0 NW 33 70 18 38 991.7 - 11.4
29/12:10pm 3.1 -9.6 3.0 99 0.0 WNW 59 104 32 56 991.4 - 11.4
29/12:00pm 3.0 -6.7 2.9 99 0.0 NNW 43 82 23 44 991.8 993.5 11.4
29/11:56am 2.8 -5.8 2.7 99 0.0 NNW 37 82 20 44 991.9 - 11.2
29/11:55am 2.7 -4.2 2.6 99 0.0 N 28 57 15 31 991.7 - 11.2
29/11:45am 2.5 -9.4 2.4 99 0.0 NW 54 106 29 57 991.7 - 11.2
29/11:30am 2.7 -7.2 2.6 99 0.0 NW 44 82 24 44 992.1 - 11.2
29/11:28am 2.8 -7.1 2.7 99 0.0 NW 44 69 24 37 992.5 - 11.2
29/11:26am 2.6 -12.1 2.5 99 0.0 WNW 69 106 37 57 992.0 - 11.2
29/11:24am 2.8 -5.8 2.7 99 0.0 NW 37 89 20 48 992.7 - 11.2
29/11:22am 2.7 -5.1 2.6 99 0.0 WNW 33 57 18 31 992.6 - 11.0
29/11:21am 2.9 -3.2 2.8 99 0.0 WNW 24 57 13 31 992.9 - 11.0
29/11:05am 2.6 -9.8 2.5 99 0.0 WNW 57 96 31 52 991.9 - 9.4
29/11:00am 2.7 -14.4 2.6 99 0.0 WNW 82 109 44 59 991.6 993.2 9.0
29/10:58am 2.8 -14.5 2.7 99 0.0 WNW 83 109 45 59 992.4 - 9.0
29/10:46am 3.1 -8.3 3.0 99 0.0 WNW 52 98 28 53 992.5 - 8.0
29/10:42am 3.8 -6.3 3.7 99 0.0 WNW 46 70 25 38 993.0 - 5.8
29/10:30am 3.8 -5.0 3.7 99 0.0 NNW 39 76 21 41 992.4 - 2.8
29/10:00am 3.9 -5.8 3.8 99 0.0 NW 44 80 24 43 992.5 994.2 1.8
29/09:48am 3.9 -4.9 3.8 99 0.0 NW 39 89 21 48 992.0 - 1.4
29/09:42am 4.0 -3.6 3.9 99 0.0 NW 33 69 18 37 992.6 - 1.4
29/09:34am 4.0 -8.5 3.9 99 0.0 WNW 59 91 32 49 992.5 - 1.2
29/09:30am 3.9 -4.1 3.8 99 0.0 NNW 35 72 19 39 992.6 - 1.2
29/09:14am 3.9 -6.2 3.8 99 0.0 NW 46 83 25 45 993.2 - 1.0
29/09:05am 3.8 -10.9 3.7 99 0.0 NW 70 96 38 52 992.5 - 0.8
29/09:00am 4.0 -5.1 3.9 99 0.0 NW 41 82 22 44 992.6 994.3 28.8
29/08:47am 4.3 -3.1 4.2 99 0.0 NW 32 85 17 46 993.2 - 28.6
29/08:33am 4.5 -2.1 4.4 99 0.0 NW 28 67 15 36 993.5 - 28.4
29/08:30am 4.6 -0.8 4.5 99 0.0 NNW 22 48 12 26 993.4 - 27.8
29/08:28am 4.5 -5.1 4.4 99 0.0 WNW 44 82 24 44 993.1 - 27.8
29/08:24am 4.5 -4.1 4.4 99 0.0 WNW 39 59 21 32 993.4 - 26.6
29/08:17am 4.5 -9.5 4.4 99 0.0 NW 67 91 36 49 992.4 - 24.0
29/08:10am 4.7 -4.7 4.6 99 0.0 NW 43 95 23 51 992.4 - 22.4
29/08:08am 4.7 -3.2 4.6 99 0.0 NW 35 69 19 37 992.7 - 22.4
29/08:06am 4.6 -9.0 4.5 99 0.0 NW 65 104 35 56 992.2 - 22.4
29/08:05am 4.7 -3.5 4.6 99 0.0 NNW 37 96 20 52 992.7 - 22.4
29/08:02am 4.7 -2.2 4.6 99 0.0 NNW 30 67 16 36 992.5 - 22.2
29/08:00am 4.7 -1.1 4.6 99 0.0 NNW 24 63 13 34 992.7 994.4 22.0
29/07:40am 4.5 -5.9 4.4 99 0.0 NW 48 95 26 51 992.7 - 20.8
29/07:38am 4.5 -4.1 4.4 99 0.0 NW 39 72 21 39 993.2 - 20.8
29/07:30am 4.5 -8.7 4.4 99 0.0 WNW 63 104 34 56 993.0 - 20.8
29/07:04am 4.8 -9.5 4.7 99 0.0 NW 69 106 37 57 992.9 - 20.8
29/07:03am 5.0 -2.8 4.9 99 0.0 NW 35 106 19 57 992.7 - 20.8
29/07:01am 5.0 -2.2 4.9 99 0.0 NNW 32 78 17 42 993.1 - 20.8
29/07:00am 5.1 -1.3 5.0 99 0.0 NNW 28 57 15 31 993.0 994.7 20.6
29/06:52am 4.7 -2.2 4.6 99 0.0 NNW 30 57 16 31 992.8 - 20.0
29/06:50am 4.6 -5.0 4.5 99 0.0 NW 44 76 24 41 992.7 - 19.6
29/06:47am 4.6 -11.4 4.5 99 0.0 WNW 78 111 42 60 992.1 - 19.0
29/06:30am 5.0 -8.1 4.9 99 0.0 NNW 63 96 34 52 991.9 - 17.2
29/06:00am 4.9 -6.5 4.8 99 0.0 NNW 54 83 29 45 993.1 994.8 16.4
29/05:53am 5.0 -4.9 4.9 99 0.0 NNW 46 78 25 42 993.2 - 16.4
29/05:52am 5.0 -4.5 4.9 99 0.0 NNW 44 61 24 33 993.5 - 16.4
29/05:30am 5.2 -8.3 5.1 99 0.0 NNW 65 115 35 62 992.9 - 15.4
29/05:25am 5.2 -8.6 5.1 99 0.0 NNW 67 109 36 59 992.5 - 15.4
29/05:03am 5.0 -8.9 4.9 99 0.0 NNW 67 89 36 48 992.8 - 15.0
29/05:00am 4.9 -5.4 4.8 99 0.0 NNW 48 76 26 41 993.0 994.7 15.0
29/04:36am 4.8 -5.1 4.7 99 0.0 NNW 46 96 25 52 994.4 - 13.8
29/04:30am 4.6 -5.0 4.5 99 0.0 NNW 44 74 24 40 994.7 - 13.4
29/04:00am 4.4 -6.4 4.3 99 0.0 NNW 50 83 27 45 995.3 997.0 12.4
29/03:30am 4.5 -6.6 4.4 99 0.0 NNW 52 78 28 42 995.9 - 10.6
29/03:20am 4.5 -4.1 4.4 99 0.0 NNW 39 76 21 41 995.7 - 10.2
29/03:01am 4.3 -3.6 4.2 99 0.0 NNW 35 56 19 30 996.9 - 9.8
29/03:00am 4.3 -4.0 4.2 99 0.0 NNW 37 56 20 30 996.9 998.7 9.8
29/02:43am 4.2 -6.2 4.1 99 0.0 NNW 48 82 26 44 997.3 - 9.8
29/02:30am 4.2 -2.8 4.1 99 0.0 N 30 54 16 29 997.8 - 8.6
29/02:00am 4.2 -5.5 4.1 99 0.0 NNW 44 78 24 42 998.4 1000.2 7.8
29/01:30am 4.0 -5.7 3.9 99 0.0 NNW 44 74 24 40 998.9 - 7.6
29/01:00am 4.2 -6.2 4.1 99 0.0 NNW 48 78 26 42 999.2 1001.0 7.4
29/12:30am 4.1 -3.5 4.0 99 0.0 NNW 33 63 18 34 999.8 - 5.4
29/12:00am 4.1 -3.5 4.0 99 0.0 NNW 33 52 18 28 1000.3 1002.2 4.6
 
Date/Time
EST
Temp
°C
App
Temp
°C
Dew
Point
Rel
Hum
%
Delta-T
°C
Wind Press
QNH
hPa
Press
MSL
hPa
Rain
since 9 am
mm
Dir
 
Spd
km/h
Gust
km/h
Spd
kts
Gust
kts
28/11:30pm 4.2 -4.9 4.1 99 0.0 NNW 41 65 22 35 1000.6 - 4.2
28/11:18pm 4.2 -4.9 4.1 99 0.0 NNW 41 78 22 42 1000.9 - 4.0
28/11:00pm 4.1 -3.3 4.0 99 0.0 NNW 32 52 17 28 1001.5 1003.4 4.0
28/10:30pm 4.1 -5.4 4.0 99 0.0 NNW 43 63 23 34 1001.3 - 3.8
28/10:03pm 3.9 -3.2 3.8 99 0.0 NNW 30 50 16 27 1001.6 - 3.8
28/10:00pm 3.9 -2.8 3.8 99 0.0 NNW 28 44 15 24 1001.6 1003.6 3.6
28/09:32pm 4.0 -3.0 3.9 99 0.0 NNW 30 48 16 26 1002.5 - 3.4
28/09:30pm 3.9 -3.2 3.8 99 0.0 NNW 30 48 16 26 1002.5 - 3.2
28/09:00pm 3.7 -3.8 3.6 99 0.0 NNW 32 54 17 29 1002.8 1004.8 3.2
28/08:30pm 3.7 -3.4 3.6 99 0.0 NNW 30 48 16 26 1002.5 - 1.8
28/08:00pm 3.4 -4.1 3.3 99 0.0 NNW 32 59 17 32 1002.7 1004.7 1.2
28/07:30pm 3.1 -5.8 3.0 99 0.0 NNW 39 61 21 33 1003.2 - 1.0
28/07:00pm 3.1 -5.0 3.0 99 0.0 NNW 35 56 19 30 1003.2 1005.2 1.0
28/06:30pm 3.2 -6.1 3.1 99 0.0 NNW 41 67 22 36 1003.0 - 1.0
28/06:00pm 3.5 -4.2 3.4 99 0.0 NNW 33 57 18 31 1002.1 1004.0 0.6
28/05:30pm 3.5 -5.3 3.4 99 0.0 NNW 39 61 21 33 1002.3 - 0.4
28/05:00pm 3.4 -4.7 3.3 99 0.0 NNW 35 56 19 30 1002.3 1004.2 0.4
28/04:30pm 3.2 -6.5 3.1 99 0.0 NNW 43 65 23 35 1002.4 - 0.2
28/04:00pm 3.6 -5.3 3.3 98 0.1 NNW 39 59 21 32 1003.0 1004.9 0.0
28/03:30pm 3.5 -4.0 3.4 99 0.0 NNW 32 57 17 31 1003.5 - 0.0
28/03:00pm 3.7 -4.4 3.4 98 0.1 NNW 35 56 19 30 1003.7 1005.7 0.0
28/02:30pm 3.8 -3.3 3.7 99 0.0 NNW 30 48 16 26 1004.2 - 0.0
28/02:00pm 3.6 -4.8 3.5 99 0.0 NNW 37 57 20 31 1004.2 1006.2 0.0
28/01:30pm 4.0 -4.7 3.9 99 0.0 NNW 39 61 21 33 1004.8 - 0.0
28/01:00pm 4.9 -2.3 4.8 99 0.0 NNW 32 52 17 28 1005.5 1007.6 0.0
28/12:30pm 4.2 -2.4 4.1 99 0.0 NW 28 57 15 31 1005.7 - 0.0
28/12:00pm 4.1 -3.9 4.0 99 0.0 NNW 35 56 19 30 1006.3 1008.4 0.0
28/11:31am 4.1 -3.5 4.0 99 0.0 NNW 33 54 18 29 1006.7 - 0.0
28/11:30am 4.0 -4.0 3.9 99 0.0 NNW 35 54 19 29 1006.9 - 0.0
28/11:01am 3.4 -5.1 3.3 99 0.0 NNW 37 59 20 32 1007.1 - 0.0
28/11:00am 3.9 -4.5 3.8 99 0.0 NNW 37 56 20 30 1007.1 1009.2 0.0
28/10:30am 3.6 -3.5 3.5 99 0.0 NNW 30 50 16 27 1007.4 - 0.0
28/10:00am 3.9 -5.2 3.8 99 0.0 NNW 41 63 22 34 1007.3 1009.4 0.0
28/09:30am 4.0 -4.0 3.9 99 0.0 NNW 35 54 19 29 1006.7 - 0.0
28/09:06am 3.7 -3.0 3.6 99 0.0 NNW 28 52 15 28 1006.7 - 0.0
28/09:00am 3.5 -3.2 3.4 99 0.0 N 28 41 15 22 1006.9 1008.9 11.0
28/08:30am 3.4 -4.1 3.3 99 0.0 NNW 32 54 17 29 1007.0 - 10.8
28/08:06am 3.6 -3.1 3.5 99 0.0 NNW 28 48 15 26 1007.2 - 10.6
28/08:00am 3.5 -4.0 3.4 99 0.0 NNW 32 48 17 26 1007.2 1009.3 10.6
28/07:30am 3.9 -3.5 3.8 99 0.0 NNW 32 52 17 28 1007.3 - 10.4
28/07:00am 4.0 -3.4 3.9 99 0.0 NNW 32 59 17 32 1007.6 1009.7 10.2
28/06:30am 3.8 -2.9 3.7 99 0.0 NW 28 56 15 30 1007.9 - 10.2
28/06:18am 3.5 -3.6 3.4 99 0.0 WNW 30 50 16 27 1007.9 - 10.2
28/06:14am 3.9 -5.2 3.8 99 0.0 W 41 50 22 27 1008.0 - 10.2
28/06:00am 3.9 -2.8 3.8 99 0.0 NW 28 50 15 27 1008.1 1010.2 10.2
28/05:59am 3.9 -3.2 3.8 99 0.0 NW 30 50 16 27 1008.0 - 10.2
28/05:54am 4.1 -2.2 4.0 99 0.0 NNW 26 37 14 20 1008.0 - 10.2
28/05:48am 4.3 -4.0 4.2 99 0.0 WNW 37 48 20 26 1008.0 - 10.2
28/05:42am 4.4 -0.1 4.3 99 0.0 NNW 17 26 9 14 1008.1 - 10.2
28/05:30am 4.3 -4.0 4.2 99 0.0 WNW 37 61 20 33 1008.0 - 10.0
28/05:11am 4.6 -1.9 4.5 99 0.0 NW 28 61 15 33 1007.7 - 10.0
28/05:10am 4.7 -0.3 4.6 99 0.0 NNW 20 56 11 30 1007.7 - 10.0
28/05:02am 4.8 -3.4 4.7 99 0.0 WNW 37 63 20 34 1007.6 - 10.0
28/05:00am 5.0 -0.3 4.9 99 0.0 NNW 22 37 12 20 1007.7 1009.9 10.0
28/04:30am 5.4 -3.5 5.3 99 0.0 NNW 41 72 22 39 1007.2 - 10.0
28/04:00am 5.5 -1.6 5.4 99 0.0 NNW 32 56 17 30 1007.3 1009.4 9.8
28/03:30am 5.5 -2.6 5.4 99 0.0 NNW 37 61 20 33 1007.6 - 7.8
28/03:24am 5.4 -1.9 5.3 99 0.0 NNW 33 56 18 30 1007.9 - 7.8
28/03:00am 5.3 -1.5 5.2 99 0.0 NNW 30 44 16 24 1008.2 1010.3 6.4
28/02:44am 5.2 -2.2 5.1 99 0.0 NNW 33 52 18 28 1008.5 - 6.2
28/02:30am 5.2 -2.2 5.1 99 0.0 N 33 48 18 26 1008.5 - 6.0
28/02:00am 5.1 -2.7 5.0 99 0.0 NNW 35 50 19 27 1009.0 1011.1 5.6
28/01:30am 5.1 -3.4 5.0 99 0.0 NNW 39 61 21 33 1009.3 - 5.6
28/01:00am 5.0 -3.2 4.9 99 0.0 NNW 37 57 20 31 1009.5 1011.7 5.6
28/12:31am 5.0 -3.2 4.9 99 0.0 NNW 37 57 20 31 1009.6 - 5.4
28/12:30am 5.0 -3.2 4.9 99 0.0 NNW 37 52 20 28 1009.8 - 5.4
28/12:10am 4.9 -3.3 4.8 99 0.0 N 37 63 20 34 1009.9 - 5.4
28/12:00am 4.8 -3.8 4.7 99 0.0 N 39 54 21 29 1010.1 1012.3 5.4
 
Date/Time
EST
Temp
°C
App
Temp
°C
Dew
Point
Rel
Hum
%
Delta-T
°C
Wind Press
QNH
hPa
Press
MSL
hPa
Rain
since 9 am
mm
Dir
 
Spd
km/h
Gust
km/h
Spd
kts
Gust
kts
27/11:30pm 4.8 -3.0 4.7 99 0.0 NNW 35 52 19 28 1010.8 - 5.2
27/11:00pm 4.7 -3.2 4.6 99 0.0 NNW 35 59 19 32 1011.1 1013.3 5.2
27/10:41pm 4.6 -3.6 4.5 99 0.0 NNW 37 57 20 31 1011.1 - 5.2
27/10:30pm 4.6 -3.3 4.5 99 0.0 N 35 50 19 27 1011.4 - 5.2
27/10:00pm 4.6 -4.4 4.5 99 0.0 N 41 56 22 30 1011.6 1013.9 5.2
27/09:30pm 4.6 -4.4 4.5 99 0.0 N 41 57 22 31 1011.9 - 5.0
27/09:22pm 4.6 -3.6 4.5 99 0.0 N 37 57 20 31 1011.9 - 5.0
27/09:00pm 4.5 -4.1 4.4 99 0.0 NNW 39 50 21 27 1012.1 1014.3 5.0
27/08:30pm 4.5 -3.8 4.4 99 0.0 NNW 37 52 20 28 1012.3 - 5.0
27/08:00pm 4.6 -4.4 4.5 99 0.0 NNW 41 52 22 28 1012.1 1014.3 4.8
27/07:46pm 4.6 -2.9 4.5 99 0.0 NNW 33 54 18 29 1012.3 - 4.8
27/07:30pm 4.6 -3.3 4.5 99 0.0 NNW 35 52 19 28 1012.7 - 4.8
27/07:00pm 4.6 -2.9 4.5 99 0.0 N 33 52 18 28 1012.8 1015.0 4.0
27/06:43pm 4.6 -2.3 4.5 99 0.0 N 30 48 16 26 1012.9 - 3.6
27/06:30pm 4.7 -2.2 4.6 99 0.0 NNW 30 44 16 24 1012.9 - 3.4
27/06:01pm 4.6 -2.3 4.5 99 0.0 NNW 30 48 16 26 1012.9 - 3.4
27/06:00pm 4.6 -2.3 4.5 99 0.0 NNW 30 43 16 23 1012.9 1015.1 3.4
27/05:41pm 4.6 -2.3 4.5 99 0.0 NNW 30 50 16 27 1012.9 - 3.4
27/05:30pm 4.5 -2.8 4.4 99 0.0 N 32 46 17 25 1012.7 - 3.2
27/05:00pm 4.4 -1.4 4.3 99 0.0 NNW 24 33 13 18 1013.1 1015.4 2.8
27/04:30pm 4.4 -1.8 4.3 99 0.0 NNW 26 41 14 22 1013.2 - 1.0
27/04:00pm 4.3 -2.3 4.2 99 0.0 NNW 28 41 15 22 1013.4 1015.7 0.6
27/03:30pm 4.2 -2.4 4.1 99 0.0 NNW 28 39 15 21 1013.5 - 0.2
27/03:00pm 4.1 -2.5 4.0 99 0.0 NNW 28 37 15 20 1013.8 1016.1 0.2
27/02:30pm 4.2 -2.0 4.1 99 0.0 NNW 26 39 14 21 1014.0 - 0.0
27/02:23pm 4.3 -3.1 4.2 99 0.0 NNW 32 52 17 28 1014.0 - 0.0
27/02:00pm 4.0 -4.0 3.9 99 0.0 N 35 48 19 26 1013.9 1016.2 0.0
27/01:30pm 4.2 -4.9 4.1 99 0.0 N 41 56 22 30 1014.0 - 0.0
27/01:08pm 4.5 -3.4 4.4 99 0.0 N 35 54 19 29 1014.5 - 0.0
27/01:00pm 4.3 -4.4 4.2 99 0.0 N 39 56 21 30 1014.5 1016.9 0.0
27/12:55pm 4.4 -3.9 4.3 99 0.0 N 37 57 20 31 1014.7 - 0.0
27/12:30pm 4.5 -3.0 4.4 99 0.0 N 33 46 18 25 1015.1 - 0.0
27/12:00pm 4.2 -3.2 4.1 99 0.0 N 32 44 17 24 1016.2 1018.6 0.0
27/11:30am 4.0 -3.6 3.9 99 0.0 N 33 44 18 24 1016.6 - 0.0
27/11:00am 3.9 -3.2 3.8 99 0.0 N 30 41 16 22 1017.1 1019.5 0.0
27/10:30am 3.6 -3.5 3.5 99 0.0 N 30 41 16 22 1017.3 - 0.0
27/10:00am 3.5 -2.9 3.4 99 0.0 N 26 37 14 20 1017.7 1020.1 0.0
27/09:30am 3.1 -3.3 3.0 99 0.0 N 26 33 14 18 1017.9 - 0.0
27/09:00am 3.0 -2.3 2.9 99 0.0 N 20 26 11 14 1018.3 1020.8 0.4
27/08:30am 3.1 -2.6 3.0 99 0.0 N 22 26 12 14 1018.6 - 0.2
27/08:00am 3.0 -3.5 2.9 99 0.0 NNW 26 37 14 20 1018.9 1021.3 0.2
27/07:30am 3.2 -2.1 3.1 99 0.0 NNW 20 32 11 17 1019.0 - 0.2
27/07:00am 3.2 -3.2 3.1 99 0.0 NNW 26 37 14 20 1018.8 1021.2 0.2
27/06:30am 3.4 -3.4 3.3 99 0.0 NNW 28 41 15 22 1018.7 - 0.2
27/06:00am 3.8 -1.4 3.7 99 0.0 NNW 20 32 11 17 1018.6 1021.0 0.2
27/05:30am 3.7 -1.5 3.6 99 0.0 NNW 20 30 11 16 1018.7 - 0.2
27/05:00am 3.8 -0.8 3.7 99 0.0 NNW 17 22 9 12 1018.7 1021.1 0.2
27/04:30am 3.8 -0.8 3.7 99 0.0 N 17 19 9 10 1018.8 - 0.2
27/04:00am 3.7 -0.2 3.6 99 0.0 NNW 13 17 7 9 1019.1 1021.6 0.2
27/03:30am 3.8 0.3 3.7 99 0.0 NNW 11 15 6 8 1019.3 - 0.2
27/03:00am 3.7 0.2 3.6 99 0.0 NW 11 19 6 10 1019.9 1022.4 0.2
27/02:30am 4.0 0.2 3.9 99 0.0 NNW 13 19 7 10 1020.1 - 0.2
27/02:00am 4.2 1.6 4.1 99 0.0 N 7 9 4 5 1020.1 1022.6 0.0
27/01:30am 4.3 1.7 4.2 99 0.0 NNW 7 11 4 6 1020.2 - 0.0
27/01:00am 4.3 0.9 4.2 99 0.0 NW 11 13 6 7 1020.3 1022.8 0.0
27/12:30am 4.3 1.3 4.2 99 0.0 W 9 13 5 7 1020.6 - 0.0
27/12:00am 4.3 0.2 4.2 99 0.0 W 15 17 8 9 1020.8 1023.3 0.0
 
Date/Time
EST
Temp
°C
App
Temp
°C
Dew
Point
Rel
Hum
%
Delta-T
°C
Wind Press
QNH
hPa
Press
MSL
hPa
Rain
since 9 am
mm
Dir
 
Spd
km/h
Gust
km/h
Spd
kts
Gust
kts
26/11:30pm 4.3 1.3 4.2 99 0.0 W 9 13 5 7 1020.9 - 0.0
26/11:00pm 4.3 0.2 4.2 99 0.0 WSW 15 19 8 10 1021.1 1023.6 0.0
26/10:30pm 4.0 -0.6 3.9 99 0.0 WSW 17 19 9 10 1021.1 - 0.0
26/10:00pm 3.8 -1.4 3.7 99 0.0 WSW 20 24 11 13 1021.2 1023.7 0.0
26/09:30pm 3.1 -2.6 3.0 99 0.0 SW 22 24 12 13 1021.0 - 0.0
26/09:00pm 3.7 -0.9 3.6 99 0.0 SW 17 20 9 11 1021.0 1023.5 0.0

Other Formats:

Comma delimited format used in spreadsheet applications
http://www.bom.gov.au/fwo/IDT60801/IDT60801.95952.axf

JavaScript Object Notation format (JSON) in row-major order
http://www.bom.gov.au/fwo/IDT60801/IDT60801.95952.json